sensor_id;sensor_type;location;lat;lon;timestamp;temperature;humidity
10980;DHT22;5543;51.734;8.744;2022-11-15T00:01:16;9.20;99.90
10980;DHT22;5543;51.734;8.744;2022-11-15T00:03:45;9.30;99.90
10980;DHT22;5543;51.734;8.744;2022-11-15T00:06:13;9.40;99.90
10980;DHT22;5543;51.734;8.744;2022-11-15T00:08:41;9.50;99.90
10980;DHT22;5543;51.734;8.744;2022-11-15T00:11:11;9.50;99.90
10980;DHT22;5543;51.734;8.744;2022-11-15T00:13:40;9.60;99.90
10980;DHT22;5543;51.734;8.744;2022-11-15T00:16:09;9.70;99.90
10980;DHT22;5543;51.734;8.744;2022-11-15T00:18:38;9.70;99.90
10980;DHT22;5543;51.734;8.744;2022-11-15T00:21:13;9.80;99.90
10980;DHT22;5543;51.734;8.744;2022-11-15T00:23:41;9.90;99.90
10980;DHT22;5543;51.734;8.744;2022-11-15T00:26:11;9.90;99.90
10980;DHT22;5543;51.734;8.744;2022-11-15T00:28:40;10.00;99.90
10980;DHT22;5543;51.734;8.744;2022-11-15T00:31:12;10.00;99.90
10980;DHT22;5543;51.734;8.744;2022-11-15T00:33:43;10.00;99.90
10980;DHT22;5543;51.734;8.744;2022-11-15T00:36:11;10.10;99.90
10980;DHT22;5543;51.734;8.744;2022-11-15T00:38:40;10.10;99.90
10980;DHT22;5543;51.734;8.744;2022-11-15T00:41:08;10.10;99.90
10980;DHT22;5543;51.734;8.744;2022-11-15T00:43:37;10.20;99.90
10980;DHT22;5543;51.734;8.744;2022-11-15T00:46:07;10.20;99.90
10980;DHT22;5543;51.734;8.744;2022-11-15T00:48:37;10.30;99.90
10980;DHT22;5543;51.734;8.744;2022-11-15T00:51:06;10.30;99.90
10980;DHT22;5543;51.734;8.744;2022-11-15T00:53:34;10.40;99.90
10980;DHT22;5543;51.734;8.744;2022-11-15T00:56:02;10.30;99.90
10980;DHT22;5543;51.734;8.744;2022-11-15T00:58:30;10.30;99.90
10980;DHT22;5543;51.734;8.744;2022-11-15T01:01:05;10.30;99.90
10980;DHT22;5543;51.734;8.744;2022-11-15T01:03:34;10.30;99.90
10980;DHT22;5543;51.734;8.744;2022-11-15T01:06:04;10.30;99.90
10980;DHT22;5543;51.734;8.744;2022-11-15T01:08:33;10.30;99.90
10980;DHT22;5543;51.734;8.744;2022-11-15T01:11:02;10.30;99.90
10980;DHT22;5543;51.734;8.744;2022-11-15T01:13:31;10.30;99.90
10980;DHT22;5543;51.734;8.744;2022-11-15T01:16:06;10.30;99.90
10980;DHT22;5543;51.734;8.744;2022-11-15T01:18:34;10.30;99.90
10980;DHT22;5543;51.734;8.744;2022-11-15T01:21:08;10.40;99.90
10980;DHT22;5543;51.734;8.744;2022-11-15T01:23:37;10.40;99.90
10980;DHT22;5543;51.734;8.744;2022-11-15T01:26:07;10.40;99.90
10980;DHT22;5543;51.734;8.744;2022-11-15T01:28:38;10.40;99.90
10980;DHT22;5543;51.734;8.744;2022-11-15T01:31:11;10.30;99.90
10980;DHT22;5543;51.734;8.744;2022-11-15T01:33:39;10.30;99.90
10980;DHT22;5543;51.734;8.744;2022-11-15T01:36:11;10.30;99.90
10980;DHT22;5543;51.734;8.744;2022-11-15T01:38:40;10.20;99.90
10980;DHT22;5543;51.734;8.744;2022-11-15T01:41:15;10.20;99.90
10980;DHT22;5543;51.734;8.744;2022-11-15T01:43:43;10.10;99.90
10980;DHT22;5543;51.734;8.744;2022-11-15T01:46:22;10.00;99.90
10980;DHT22;5543;51.734;8.744;2022-11-15T01:48:53;9.90;99.90
10980;DHT22;5543;51.734;8.744;2022-11-15T01:51:26;9.80;99.90
10980;DHT22;5543;51.734;8.744;2022-11-15T01:53:59;9.80;99.90
10980;DHT22;5543;51.734;8.744;2022-11-15T01:56:31;9.80;99.90
10980;DHT22;5543;51.734;8.744;2022-11-15T01:59:03;9.70;99.90
10980;DHT22;5543;51.734;8.744;2022-11-15T02:01:32;9.70;99.90
10980;DHT22;5543;51.734;8.744;2022-11-15T02:04:04;9.70;99.90
10980;DHT22;5543;51.734;8.744;2022-11-15T02:06:35;9.70;99.90
10980;DHT22;5543;51.734;8.744;2022-11-15T02:09:04;9.70;99.90
10980;DHT22;5543;51.734;8.744;2022-11-15T02:11:32;9.90;99.90
10980;DHT22;5543;51.734;8.744;2022-11-15T02:14:01;9.70;99.90
10980;DHT22;5543;51.734;8.744;2022-11-15T02:16:34;9.90;99.90
10980;DHT22;5543;51.734;8.744;2022-11-15T02:19:15;9.90;99.90
10980;DHT22;5543;51.734;8.744;2022-11-15T02:21:59;10.00;99.90
10980;DHT22;5543;51.734;8.744;2022-11-15T02:25:01;9.90;99.90
10980;DHT22;5543;51.734;8.744;2022-11-15T02:28:06;9.90;99.90
10980;DHT22;5543;51.734;8.744;2022-11-15T02:30:42;9.80;99.90
10980;DHT22;5543;51.734;8.744;2022-11-15T02:33:21;9.80;99.90
10980;DHT22;5543;51.734;8.744;2022-11-15T02:35:57;9.90;99.90
10980;DHT22;5543;51.734;8.744;2022-11-15T02:38:32;9.90;99.90
10980;DHT22;5543;51.734;8.744;2022-11-15T02:41:04;9.90;99.90
10980;DHT22;5543;51.734;8.744;2022-11-15T02:43:38;9.90;99.90
10980;DHT22;5543;51.734;8.744;2022-11-15T02:46:33;9.90;99.90
10980;DHT22;5543;51.734;8.744;2022-11-15T02:49:20;9.90;99.90
10980;DHT22;5543;51.734;8.744;2022-11-15T02:51:51;9.90;99.90
10980;DHT22;5543;51.734;8.744;2022-11-15T02:54:22;9.80;99.90
10980;DHT22;5543;51.734;8.744;2022-11-15T02:56:53;9.90;99.90
10980;DHT22;5543;51.734;8.744;2022-11-15T02:59:44;9.90;99.90
10980;DHT22;5543;51.734;8.744;2022-11-15T03:02:28;9.90;99.90
10980;DHT22;5543;51.734;8.744;2022-11-15T03:05:04;9.90;99.90
10980;DHT22;5543;51.734;8.744;2022-11-15T03:07:39;9.90;99.90
10980;DHT22;5543;51.734;8.744;2022-11-15T03:10:12;9.80;99.90
10980;DHT22;5543;51.734;8.744;2022-11-15T03:12:51;9.80;99.90
10980;DHT22;5543;51.734;8.744;2022-11-15T03:15:22;9.70;99.90
10980;DHT22;5543;51.734;8.744;2022-11-15T03:17:55;9.70;99.90
10980;DHT22;5543;51.734;8.744;2022-11-15T03:20:26;9.70;99.90
10980;DHT22;5543;51.734;8.744;2022-11-15T03:23:00;9.70;99.90
10980;DHT22;5543;51.734;8.744;2022-11-15T03:25:31;9.80;99.90
10980;DHT22;5543;51.734;8.744;2022-11-15T03:28:01;9.90;99.90
10980;DHT22;5543;51.734;8.744;2022-11-15T03:30:32;9.90;99.90
10980;DHT22;5543;51.734;8.744;2022-11-15T03:33:05;10.00;99.90
10980;DHT22;5543;51.734;8.744;2022-11-15T03:35:37;10.00;99.90
10980;DHT22;5543;51.734;8.744;2022-11-15T03:38:11;10.00;99.90
10980;DHT22;5543;51.734;8.744;2022-11-15T03:40:44;10.00;99.90
10980;DHT22;5543;51.734;8.744;2022-11-15T03:43:20;10.00;99.90
10980;DHT22;5543;51.734;8.744;2022-11-15T03:45:53;10.00;99.90
10980;DHT22;5543;51.734;8.744;2022-11-15T03:48:27;10.00;99.90
10980;DHT22;5543;51.734;8.744;2022-11-15T03:50:57;10.00;99.90
10980;DHT22;5543;51.734;8.744;2022-11-15T03:53:25;9.90;99.90
10980;DHT22;5543;51.734;8.744;2022-11-15T03:55:53;9.80;99.90
10980;DHT22;5543;51.734;8.744;2022-11-15T03:58:21;9.70;99.90
10980;DHT22;5543;51.734;8.744;2022-11-15T04:00:49;9.70;99.90
10980;DHT22;5543;51.734;8.744;2022-11-15T04:03:17;9.40;99.90
10980;DHT22;5543;51.734;8.744;2022-11-15T04:05:47;9.20;99.90
10980;DHT22;5543;51.734;8.744;2022-11-15T04:08:15;9.10;99.90
10980;DHT22;5543;51.734;8.744;2022-11-15T04:10:43;9.00;99.90
10980;DHT22;5543;51.734;8.744;2022-11-15T04:13:11;8.90;99.90
10980;DHT22;5543;51.734;8.744;2022-11-15T04:15:39;8.80;99.90
10980;DHT22;5543;51.734;8.744;2022-11-15T04:18:07;8.80;99.90
10980;DHT22;5543;51.734;8.744;2022-11-15T04:20:35;8.70;99.90
10980;DHT22;5543;51.734;8.744;2022-11-15T04:23:37;8.60;99.90
10980;DHT22;5543;51.734;8.744;2022-11-15T04:26:28;8.60;99.90
10980;DHT22;5543;51.734;8.744;2022-11-15T04:28:56;8.50;99.90
10980;DHT22;5543;51.734;8.744;2022-11-15T04:31:41;8.50;99.90
10980;DHT22;5543;51.734;8.744;2022-11-15T04:34:09;8.70;99.90
10980;DHT22;5543;51.734;8.744;2022-11-15T04:36:37;8.50;99.90
10980;DHT22;5543;51.734;8.744;2022-11-15T04:39:24;8.60;99.90
10980;DHT22;5543;51.734;8.744;2022-11-15T04:41:52;9.00;99.90
10980;DHT22;5543;51.734;8.744;2022-11-15T04:44:20;9.00;99.90
10980;DHT22;5543;51.734;8.744;2022-11-15T04:46:49;9.20;99.90
10980;DHT22;5543;51.734;8.744;2022-11-15T04:49:17;9.40;99.90
10980;DHT22;5543;51.734;8.744;2022-11-15T04:51:45;9.60;99.90
10980;DHT22;5543;51.734;8.744;2022-11-15T04:54:13;9.60;99.90
10980;DHT22;5543;51.734;8.744;2022-11-15T04:56:43;9.70;99.90
10980;DHT22;5543;51.734;8.744;2022-11-15T04:59:11;9.90;99.90
10980;DHT22;5543;51.734;8.744;2022-11-15T05:01:39;10.10;99.90
10980;DHT22;5543;51.734;8.744;2022-11-15T05:04:11;10.40;99.90
10980;DHT22;5543;51.734;8.744;2022-11-15T05:06:50;10.40;99.90
10980;DHT22;5543;51.734;8.744;2022-11-15T05:09:19;10.60;99.90
10980;DHT22;5543;51.734;8.744;2022-11-15T05:11:49;10.70;99.90
10980;DHT22;5543;51.734;8.744;2022-11-15T05:14:17;10.80;99.90
10980;DHT22;5543;51.734;8.744;2022-11-15T05:16:45;10.90;99.90
10980;DHT22;5543;51.734;8.744;2022-11-15T05:19:13;11.20;99.90
10980;DHT22;5543;51.734;8.744;2022-11-15T05:21:41;11.10;99.90
10980;DHT22;5543;51.734;8.744;2022-11-15T05:24:10;11.10;99.90
10980;DHT22;5543;51.734;8.744;2022-11-15T05:26:38;11.20;99.90
10980;DHT22;5543;51.734;8.744;2022-11-15T05:29:09;11.30;99.90
10980;DHT22;5543;51.734;8.744;2022-11-15T05:31:40;11.30;99.90
10980;DHT22;5543;51.734;8.744;2022-11-15T05:34:09;11.30;99.90
10980;DHT22;5543;51.734;8.744;2022-11-15T05:36:38;11.40;99.90
10980;DHT22;5543;51.734;8.744;2022-11-15T05:39:07;11.30;99.90
10980;DHT22;5543;51.734;8.744;2022-11-15T05:41:38;11.30;99.90
10980;DHT22;5543;51.734;8.744;2022-11-15T05:44:11;11.30;99.90
10980;DHT22;5543;51.734;8.744;2022-11-15T05:46:41;11.20;99.90
10980;DHT22;5543;51.734;8.744;2022-11-15T05:49:12;11.10;99.90
10980;DHT22;5543;51.734;8.744;2022-11-15T05:51:42;11.10;99.90
10980;DHT22;5543;51.734;8.744;2022-11-15T05:54:12;11.00;99.90
10980;DHT22;5543;51.734;8.744;2022-11-15T05:56:41;10.90;99.90
10980;DHT22;5543;51.734;8.744;2022-11-15T05:59:10;10.80;99.90
10980;DHT22;5543;51.734;8.744;2022-11-15T06:01:39;10.70;99.90
10980;DHT22;5543;51.734;8.744;2022-11-15T06:04:07;10.70;99.90
10980;DHT22;5543;51.734;8.744;2022-11-15T06:06:35;10.60;99.90
10980;DHT22;5543;51.734;8.744;2022-11-15T06:09:03;10.50;99.90
10980;DHT22;5543;51.734;8.744;2022-11-15T06:11:32;10.40;99.90
10980;DHT22;5543;51.734;8.744;2022-11-15T06:14:00;10.30;99.90
10980;DHT22;5543;51.734;8.744;2022-11-15T06:16:29;10.20;99.90
10980;DHT22;5543;51.734;8.744;2022-11-15T06:18:57;10.20;99.90
10980;DHT22;5543;51.734;8.744;2022-11-15T06:21:25;10.20;99.90
10980;DHT22;5543;51.734;8.744;2022-11-15T06:23:55;10.20;99.90
10980;DHT22;5543;51.734;8.744;2022-11-15T06:26:23;10.10;99.90
10980;DHT22;5543;51.734;8.744;2022-11-15T06:28:52;10.10;99.90
10980;DHT22;5543;51.734;8.744;2022-11-15T06:31:20;10.00;99.90
10980;DHT22;5543;51.734;8.744;2022-11-15T06:33:50;10.10;99.90
10980;DHT22;5543;51.734;8.744;2022-11-15T06:36:18;10.10;99.90
10980;DHT22;5543;51.734;8.744;2022-11-15T06:38:46;10.00;99.90
10980;DHT22;5543;51.734;8.744;2022-11-15T06:41:14;10.00;99.90
10980;DHT22;5543;51.734;8.744;2022-11-15T06:43:46;10.00;99.90
10980;DHT22;5543;51.734;8.744;2022-11-15T06:46:15;10.00;99.90
10980;DHT22;5543;51.734;8.744;2022-11-15T06:48:43;10.00;99.90
10980;DHT22;5543;51.734;8.744;2022-11-15T06:51:12;10.10;99.90
10980;DHT22;5543;51.734;8.744;2022-11-15T06:53:40;10.10;99.90
10980;DHT22;5543;51.734;8.744;2022-11-15T06:56:08;10.20;99.90
10980;DHT22;5543;51.734;8.744;2022-11-15T06:58:36;10.20;99.90
10980;DHT22;5543;51.734;8.744;2022-11-15T07:01:07;10.20;99.90
10980;DHT22;5543;51.734;8.744;2022-11-15T07:03:36;10.20;99.90
10980;DHT22;5543;51.734;8.744;2022-11-15T07:06:05;10.10;99.90
10980;DHT22;5543;51.734;8.744;2022-11-15T07:08:35;10.10;99.90
10980;DHT22;5543;51.734;8.744;2022-11-15T07:11:05;10.10;99.90
10980;DHT22;5543;51.734;8.744;2022-11-15T07:13:34;10.20;99.90
10980;DHT22;5543;51.734;8.744;2022-11-15T07:16:03;10.20;99.90
10980;DHT22;5543;51.734;8.744;2022-11-15T07:18:33;10.30;99.90
10980;DHT22;5543;51.734;8.744;2022-11-15T07:21:03;10.40;99.90
10980;DHT22;5543;51.734;8.744;2022-11-15T07:23:31;10.40;99.90
10980;DHT22;5543;51.734;8.744;2022-11-15T07:26:01;10.50;99.90
10980;DHT22;5543;51.734;8.744;2022-11-15T07:28:30;10.50;99.90
10980;DHT22;5543;51.734;8.744;2022-11-15T07:31:01;10.60;99.90
10980;DHT22;5543;51.734;8.744;2022-11-15T07:33:29;10.70;99.90
10980;DHT22;5543;51.734;8.744;2022-11-15T07:35:59;10.80;99.90
10980;DHT22;5543;51.734;8.744;2022-11-15T07:38:28;11.00;99.90
10980;DHT22;5543;51.734;8.744;2022-11-15T07:40:57;11.10;99.90
10980;DHT22;5543;51.734;8.744;2022-11-15T07:43:27;11.20;99.90
10980;DHT22;5543;51.734;8.744;2022-11-15T07:45:57;11.30;99.90
10980;DHT22;5543;51.734;8.744;2022-11-15T07:48:25;11.50;99.90
10980;DHT22;5543;51.734;8.744;2022-11-15T07:51:11;11.90;99.90
10980;DHT22;5543;51.734;8.744;2022-11-15T07:53:40;12.60;99.90
10980;DHT22;5543;51.734;8.744;2022-11-15T07:56:09;13.10;99.90
10980;DHT22;5543;51.734;8.744;2022-11-15T07:58:39;13.30;99.90
10980;DHT22;5543;51.734;8.744;2022-11-15T08:01:09;13.30;99.90
10980;DHT22;5543;51.734;8.744;2022-11-15T08:03:38;13.10;99.90
10980;DHT22;5543;51.734;8.744;2022-11-15T08:06:06;12.90;99.90
10980;DHT22;5543;51.734;8.744;2022-11-15T08:08:35;12.80;99.90
10980;DHT22;5543;51.734;8.744;2022-11-15T08:11:03;12.80;99.90
10980;DHT22;5543;51.734;8.744;2022-11-15T08:13:31;12.80;99.90
10980;DHT22;5543;51.734;8.744;2022-11-15T08:16:02;12.90;99.90
10980;DHT22;5543;51.734;8.744;2022-11-15T08:18:32;13.00;99.90
10980;DHT22;5543;51.734;8.744;2022-11-15T08:21:00;13.20;99.90
10980;DHT22;5543;51.734;8.744;2022-11-15T08:23:29;13.50;99.90
10980;DHT22;5543;51.734;8.744;2022-11-15T08:26:01;13.70;99.90
10980;DHT22;5543;51.734;8.744;2022-11-15T08:28:30;13.90;99.90
10980;DHT22;5543;51.734;8.744;2022-11-15T08:30:59;14.00;99.90
10980;DHT22;5543;51.734;8.744;2022-11-15T08:33:29;14.10;99.90
10980;DHT22;5543;51.734;8.744;2022-11-15T08:35:58;14.30;99.90
10980;DHT22;5543;51.734;8.744;2022-11-15T08:38:27;14.50;99.90
10980;DHT22;5543;51.734;8.744;2022-11-15T08:41:01;14.70;99.90
10980;DHT22;5543;51.734;8.744;2022-11-15T08:43:29;15.40;99.90
10980;DHT22;5543;51.734;8.744;2022-11-15T08:45:58;16.60;99.90
10980;DHT22;5543;51.734;8.744;2022-11-15T08:48:29;18.10;99.90
10980;DHT22;5543;51.734;8.744;2022-11-15T08:50:57;19.90;99.90
10980;DHT22;5543;51.734;8.744;2022-11-15T08:53:26;21.50;98.10
10980;DHT22;5543;51.734;8.744;2022-11-15T08:55:54;22.00;96.00
10980;DHT22;5543;51.734;8.744;2022-11-15T08:58:22;21.60;95.10
10980;DHT22;5543;51.734;8.744;2022-11-15T09:00:50;20.70;95.60
10980;DHT22;5543;51.734;8.744;2022-11-15T09:03:18;20.00;96.50
10980;DHT22;5543;51.734;8.744;2022-11-15T09:05:48;20.30;96.40
10980;DHT22;5543;51.734;8.744;2022-11-15T09:08:16;21.20;95.70
10980;DHT22;5543;51.734;8.744;2022-11-15T09:11:05;21.70;94.20
10980;DHT22;5543;51.734;8.744;2022-11-15T09:13:34;21.90;94.30
10980;DHT22;5543;51.734;8.744;2022-11-15T09:16:04;22.70;93.80
10980;DHT22;5543;51.734;8.744;2022-11-15T09:18:32;23.50;92.60
10980;DHT22;5543;51.734;8.744;2022-11-15T09:21:02;24.70;91.10
10980;DHT22;5543;51.734;8.744;2022-11-15T09:23:31;25.40;89.90
10980;DHT22;5543;51.734;8.744;2022-11-15T09:26:00;25.50;88.40
10980;DHT22;5543;51.734;8.744;2022-11-15T09:28:29;25.50;87.00
10980;DHT22;5543;51.734;8.744;2022-11-15T09:30:59;25.80;86.10
10980;DHT22;5543;51.734;8.744;2022-11-15T09:33:28;26.00;84.60
10980;DHT22;5543;51.734;8.744;2022-11-15T09:36:00;26.20;83.90
10980;DHT22;5543;51.734;8.744;2022-11-15T09:38:30;26.20;82.40
10980;DHT22;5543;51.734;8.744;2022-11-15T09:44:18;25.80;80.90
10980;DHT22;5543;51.734;8.744;2022-11-15T09:46:57;25.50;81.80
10980;DHT22;5543;51.734;8.744;2022-11-15T09:49:26;24.60;80.60
10980;DHT22;5543;51.734;8.744;2022-11-15T09:51:57;24.50;82.30
10980;DHT22;5543;51.734;8.744;2022-11-15T09:54:30;23.40;82.70
10980;DHT22;5543;51.734;8.744;2022-11-15T09:57:21;22.10;83.30
10980;DHT22;5543;51.734;8.744;2022-11-15T09:59:59;20.80;86.30
10980;DHT22;5543;51.734;8.744;2022-11-15T10:03:00;19.60;89.50
10980;DHT22;5543;51.734;8.744;2022-11-15T10:05:37;18.50;90.70
10980;DHT22;5543;51.734;8.744;2022-11-15T10:10:59;17.60;92.70
10980;DHT22;5543;51.734;8.744;2022-11-15T10:13:49;17.50;93.20
10980;DHT22;5543;51.734;8.744;2022-11-15T10:19:12;17.50;93.20
10980;DHT22;5543;51.734;8.744;2022-11-15T10:21:50;17.30;93.10
10980;DHT22;5543;51.734;8.744;2022-11-15T10:24:26;17.10;93.40
10980;DHT22;5543;51.734;8.744;2022-11-15T10:26:57;17.00;93.50
10980;DHT22;5543;51.734;8.744;2022-11-15T10:29:25;16.90;94.10
10980;DHT22;5543;51.734;8.744;2022-11-15T10:31:54;17.10;94.40
10980;DHT22;5543;51.734;8.744;2022-11-15T10:34:23;17.10;94.30
10980;DHT22;5543;51.734;8.744;2022-11-15T10:36:55;17.40;94.60
10980;DHT22;5543;51.734;8.744;2022-11-15T10:39:24;17.50;94.60
10980;DHT22;5543;51.734;8.744;2022-11-15T10:41:54;17.50;94.40
10980;DHT22;5543;51.734;8.744;2022-11-15T10:44:27;17.30;93.70
10980;DHT22;5543;51.734;8.744;2022-11-15T10:47:27;17.00;93.60
10980;DHT22;5543;51.734;8.744;2022-11-15T10:50:07;16.80;93.60
10980;DHT22;5543;51.734;8.744;2022-11-15T10:52:53;16.60;94.20
10980;DHT22;5543;51.734;8.744;2022-11-15T10:55:26;16.50;94.10
10980;DHT22;5543;51.734;8.744;2022-11-15T10:57:59;16.50;94.30
10980;DHT22;5543;51.734;8.744;2022-11-15T11:00:36;16.40;94.60
10980;DHT22;5543;51.734;8.744;2022-11-15T11:03:27;16.40;95.00
10980;DHT22;5543;51.734;8.744;2022-11-15T11:06:04;16.30;95.10
10980;DHT22;5543;51.734;8.744;2022-11-15T11:08:33;16.30;94.70
10980;DHT22;5543;51.734;8.744;2022-11-15T11:11:03;16.30;94.70
10980;DHT22;5543;51.734;8.744;2022-11-15T11:13:33;16.20;94.60
10980;DHT22;5543;51.734;8.744;2022-11-15T11:16:40;16.10;94.20
10980;DHT22;5543;51.734;8.744;2022-11-15T11:22:11;16.20;94.80
10980;DHT22;5543;51.734;8.744;2022-11-15T11:24:45;16.20;94.00
10980;DHT22;5543;51.734;8.744;2022-11-15T11:27:30;16.10;94.40
10980;DHT22;5543;51.734;8.744;2022-11-15T11:30:08;16.10;95.10
10980;DHT22;5543;51.734;8.744;2022-11-15T11:33:12;15.90;94.60
10980;DHT22;5543;51.734;8.744;2022-11-15T11:35:51;15.90;94.50
10980;DHT22;5543;51.734;8.744;2022-11-15T11:38:45;15.80;94.50
10980;DHT22;5543;51.734;8.744;2022-11-15T11:41:27;15.80;94.40
10980;DHT22;5543;51.734;8.744;2022-11-15T11:44:10;15.90;94.70
10980;DHT22;5543;51.734;8.744;2022-11-15T11:46:55;15.80;94.40
10980;DHT22;5543;51.734;8.744;2022-11-15T11:49:30;15.80;94.70
10980;DHT22;5543;51.734;8.744;2022-11-15T11:52:03;15.90;95.20
10980;DHT22;5543;51.734;8.744;2022-11-15T11:54:40;15.90;95.10
10980;DHT22;5543;51.734;8.744;2022-11-15T11:57:15;16.10;95.10
10980;DHT22;5543;51.734;8.744;2022-11-15T11:59:49;16.20;95.20
10980;DHT22;5543;51.734;8.744;2022-11-15T12:02:28;16.50;95.40
10980;DHT22;5543;51.734;8.744;2022-11-15T12:05:05;16.90;95.30
10980;DHT22;5543;51.734;8.744;2022-11-15T12:07:36;17.30;95.70
10980;DHT22;5543;51.734;8.744;2022-11-15T12:10:17;17.40;95.30
10980;DHT22;5543;51.734;8.744;2022-11-15T12:12:53;17.50;95.50
10980;DHT22;5543;51.734;8.744;2022-11-15T12:15:26;17.50;95.90
10980;DHT22;5543;51.734;8.744;2022-11-15T12:17:55;17.40;95.90
10980;DHT22;5543;51.734;8.744;2022-11-15T12:20:30;17.30;95.70
10980;DHT22;5543;51.734;8.744;2022-11-15T12:23:04;17.20;95.60
10980;DHT22;5543;51.734;8.744;2022-11-15T12:25:40;17.20;95.30
10980;DHT22;5543;51.734;8.744;2022-11-15T12:28:20;17.10;95.60
10980;DHT22;5543;51.734;8.744;2022-11-15T12:30:56;17.10;96.00
10980;DHT22;5543;51.734;8.744;2022-11-15T12:33:34;17.10;95.40
10980;DHT22;5543;51.734;8.744;2022-11-15T12:36:05;16.90;95.50
10980;DHT22;5543;51.734;8.744;2022-11-15T12:38:56;16.70;95.30
10980;DHT22;5543;51.734;8.744;2022-11-15T12:41:26;16.50;95.50
10980;DHT22;5543;51.734;8.744;2022-11-15T12:43:55;16.40;95.80
10980;DHT22;5543;51.734;8.744;2022-11-15T12:46:59;16.40;95.90
10980;DHT22;5543;51.734;8.744;2022-11-15T12:49:45;16.50;95.80
10980;DHT22;5543;51.734;8.744;2022-11-15T12:52:17;16.60;95.40
10980;DHT22;5543;51.734;8.744;2022-11-15T12:54:52;16.60;95.30
10980;DHT22;5543;51.734;8.744;2022-11-15T12:57:38;16.40;95.30
10980;DHT22;5543;51.734;8.744;2022-11-15T13:03:25;16.00;95.90
10980;DHT22;5543;51.734;8.744;2022-11-15T13:06:09;16.00;96.20
10980;DHT22;5543;51.734;8.744;2022-11-15T13:08:47;15.80;96.10
10980;DHT22;5543;51.734;8.744;2022-11-15T13:11:41;15.70;95.70
10980;DHT22;5543;51.734;8.744;2022-11-15T13:14:43;15.70;95.40
10980;DHT22;5543;51.734;8.744;2022-11-15T13:17:36;15.70;95.50
10980;DHT22;5543;51.734;8.744;2022-11-15T13:20:25;15.60;95.40
10980;DHT22;5543;51.734;8.744;2022-11-15T13:23:01;15.60;95.30
10980;DHT22;5543;51.734;8.744;2022-11-15T13:25:55;15.50;95.60
10980;DHT22;5543;51.734;8.744;2022-11-15T13:28:31;15.50;96.00
10980;DHT22;5543;51.734;8.744;2022-11-15T13:31:02;15.40;95.90
10980;DHT22;5543;51.734;8.744;2022-11-15T13:33:33;15.40;95.50
10980;DHT22;5543;51.734;8.744;2022-11-15T13:36:05;15.40;94.90
10980;DHT22;5543;51.734;8.744;2022-11-15T13:38:36;15.40;95.20
10980;DHT22;5543;51.734;8.744;2022-11-15T13:41:18;15.40;94.70
10980;DHT22;5543;51.734;8.744;2022-11-15T13:43:48;15.40;94.70
10980;DHT22;5543;51.734;8.744;2022-11-15T13:46:18;15.40;94.40
10980;DHT22;5543;51.734;8.744;2022-11-15T13:48:50;15.40;94.60
10980;DHT22;5543;51.734;8.744;2022-11-15T13:51:22;15.40;94.80
10980;DHT22;5543;51.734;8.744;2022-11-15T13:53:56;15.50;94.40
10980;DHT22;5543;51.734;8.744;2022-11-15T13:56:28;15.40;94.20
10980;DHT22;5543;51.734;8.744;2022-11-15T13:58:56;15.40;94.30
10980;DHT22;5543;51.734;8.744;2022-11-15T14:01:28;15.50;94.30
10980;DHT22;5543;51.734;8.744;2022-11-15T14:04:00;15.50;94.30
10980;DHT22;5543;51.734;8.744;2022-11-15T14:06:30;15.50;94.30
10980;DHT22;5543;51.734;8.744;2022-11-15T14:09:29;15.60;94.40
10980;DHT22;5543;51.734;8.744;2022-11-15T14:12:02;15.60;94.60
10980;DHT22;5543;51.734;8.744;2022-11-15T14:14:30;15.60;94.50
10980;DHT22;5543;51.734;8.744;2022-11-15T14:16:59;15.40;94.40
10980;DHT22;5543;51.734;8.744;2022-11-15T14:19:36;15.30;94.30
10980;DHT22;5543;51.734;8.744;2022-11-15T14:22:19;15.30;94.80
10980;DHT22;5543;51.734;8.744;2022-11-15T14:25:07;15.20;94.70
10980;DHT22;5543;51.734;8.744;2022-11-15T14:27:43;15.20;95.00
10980;DHT22;5543;51.734;8.744;2022-11-15T14:30:16;15.20;95.10
10980;DHT22;5543;51.734;8.744;2022-11-15T14:32:46;15.30;94.90
10980;DHT22;5543;51.734;8.744;2022-11-15T14:35:17;15.10;95.00
10980;DHT22;5543;51.734;8.744;2022-11-15T14:37:46;15.00;95.10
10980;DHT22;5543;51.734;8.744;2022-11-15T14:40:16;15.00;95.40
10980;DHT22;5543;51.734;8.744;2022-11-15T14:42:48;14.90;95.40
10980;DHT22;5543;51.734;8.744;2022-11-15T14:45:20;14.80;95.50
10980;DHT22;5543;51.734;8.744;2022-11-15T14:47:48;14.70;95.30
10980;DHT22;5543;51.734;8.744;2022-11-15T14:50:18;14.70;95.90
10980;DHT22;5543;51.734;8.744;2022-11-15T14:52:47;14.60;96.00
10980;DHT22;5543;51.734;8.744;2022-11-15T14:55:19;14.50;95.90
10980;DHT22;5543;51.734;8.744;2022-11-15T14:57:49;14.50;96.20
10980;DHT22;5543;51.734;8.744;2022-11-15T15:00:19;14.40;96.30
10980;DHT22;5543;51.734;8.744;2022-11-15T15:02:53;14.30;97.00
10980;DHT22;5543;51.734;8.744;2022-11-15T15:05:23;14.30;96.70
10980;DHT22;5543;51.734;8.744;2022-11-15T15:07:54;14.20;96.80
10980;DHT22;5543;51.734;8.744;2022-11-15T15:10:23;14.20;96.60
10980;DHT22;5543;51.734;8.744;2022-11-15T15:13:16;14.20;97.00
10980;DHT22;5543;51.734;8.744;2022-11-15T15:15:44;14.10;97.10
10980;DHT22;5543;51.734;8.744;2022-11-15T15:18:13;14.10;97.20
10980;DHT22;5543;51.734;8.744;2022-11-15T15:20:43;14.10;97.40
10980;DHT22;5543;51.734;8.744;2022-11-15T15:23:16;14.10;97.30
10980;DHT22;5543;51.734;8.744;2022-11-15T15:25:45;14.00;97.40
10980;DHT22;5543;51.734;8.744;2022-11-15T15:28:16;14.10;97.40
10980;DHT22;5543;51.734;8.744;2022-11-15T15:30:45;14.00;97.80
10980;DHT22;5543;51.734;8.744;2022-11-15T15:33:13;14.00;97.80
10980;DHT22;5543;51.734;8.744;2022-11-15T15:35:42;14.00;97.80
10980;DHT22;5543;51.734;8.744;2022-11-15T15:38:11;14.00;98.00
10980;DHT22;5543;51.734;8.744;2022-11-15T15:40:42;14.00;98.10
10980;DHT22;5543;51.734;8.744;2022-11-15T15:43:10;13.90;98.40
10980;DHT22;5543;51.734;8.744;2022-11-15T15:45:41;13.90;98.60
10980;DHT22;5543;51.734;8.744;2022-11-15T15:48:12;13.80;98.50
10980;DHT22;5543;51.734;8.744;2022-11-15T15:50:42;13.80;98.60
10980;DHT22;5543;51.734;8.744;2022-11-15T15:53:11;13.80;98.80
10980;DHT22;5543;51.734;8.744;2022-11-15T15:55:40;13.70;99.00
10980;DHT22;5543;51.734;8.744;2022-11-15T15:58:08;13.70;99.10
10980;DHT22;5543;51.734;8.744;2022-11-15T16:00:37;13.70;99.20
10980;DHT22;5543;51.734;8.744;2022-11-15T16:03:09;13.70;99.30
10980;DHT22;5543;51.734;8.744;2022-11-15T16:05:38;13.70;99.30
10980;DHT22;5543;51.734;8.744;2022-11-15T16:08:19;13.70;99.30
10980;DHT22;5543;51.734;8.744;2022-11-15T16:10:48;13.70;99.40
10980;DHT22;5543;51.734;8.744;2022-11-15T16:13:16;13.70;99.30
10980;DHT22;5543;51.734;8.744;2022-11-15T16:15:47;13.70;99.20
10980;DHT22;5543;51.734;8.744;2022-11-15T16:18:19;13.70;99.30
10980;DHT22;5543;51.734;8.744;2022-11-15T16:20:49;13.70;99.50
10980;DHT22;5543;51.734;8.744;2022-11-15T16:23:19;13.70;99.60
10980;DHT22;5543;51.734;8.744;2022-11-15T16:25:51;13.60;99.60
10980;DHT22;5543;51.734;8.744;2022-11-15T16:28:25;13.60;99.70
10980;DHT22;5543;51.734;8.744;2022-11-15T16:31:00;13.60;99.80
10980;DHT22;5543;51.734;8.744;2022-11-15T16:33:30;13.60;99.90
10980;DHT22;5543;51.734;8.744;2022-11-15T16:35:59;13.60;99.90
10980;DHT22;5543;51.734;8.744;2022-11-15T16:38:28;13.60;99.90
10980;DHT22;5543;51.734;8.744;2022-11-15T16:40:57;13.60;99.90